AirNav   Air Wisconsin Up To $57,000 Bonus
 
 1464 users online  

15M Iuka Airport
Iuka, Mississippi, USA

GOING TO IUKA?


FAA INFORMATION EFFECTIVE 08 SEPTEMBER 2022

Location

FAA Identifier: 15M
Lat/Long: 34-46-24.0000N 088-09-57.9000W
34-46.400000N 088-09.965000W
34.7733333,-88.1660833
(estimated)
Elevation: 625.9 ft. / 190.8 m (surveyed)
Variation: 03W (2020)
From city: 3 miles SE of IUKA, MS
Time zone: UTC -5 (UTC -6 during Standard Time)
Zip code: 38852

Airport Operations

Airport use: Open to the public
Control tower: no
ARTCC: MEMPHIS CENTER
FSS: GREENWOOD FLIGHT SERVICE STATION
NOTAMs facility: GWO (NOTAM-D service available)
Attendance: DAYLIGHT HOURS
FOR AFT HR SVC CTC AMGR.
Wind indicator: lighted
Segmented circle: yes
Lights: ACTVT PAPI RWY 01 & 19; MIRL RWY 01/19 - CTAF. RWY LGT INTST CAN BE CHGD M-H.
Beacon: white-green (lighted land airport)
Operates sunset to sunrise.

Airport Communications

CTAF: 122.9
  • APCH/DEP SVC PRVDD BY MEMPHIS ARTCC ON FREQS 124.35/318.1 (MCKELLAR RCAG).

Nearby radio navigation aids

VOR radial/distance  VOR name  Freq  Var
MSLr276/33.5MUSCLE SHOALS VORTAC116.5001E

Airport Services

Fuel available: 100LL
100LL:FUEL AVBL 24 HRS WITH CREDIT CARD.
Parking: tiedowns
Bottled oxygen: NONE
Bulk oxygen: NONE

Runway Information

Runway 1/19

Dimensions: 4001 x 75 ft. / 1220 x 23 m
Surface: asphalt/grooved, in good condition
Weight bearing capacity: 
Single wheel: 30.0
Runway edge lights: medium intensity
RUNWAY 1  RUNWAY 19
Latitude: 34-46.071068N34-46.729355N
Longitude: 088-09.990513W088-09.940807W
Elevation: 619.9 ft.625.9 ft.
Traffic pattern: leftleft
Runway heading: 007 magnetic, 004 true187 magnetic, 184 true
Markings: nonprecision, in good conditionnonprecision, in good condition
Visual slope indicator: 4-light PAPI on left (3.00 degrees glide path)4-light PAPI on left (4.00 degrees glide path)
Touchdown point: yes, no lightsyes, no lights
Obstructions: 47 ft. trees, 1400 ft. from runway, 25:1 slope to clear39 ft. trees, 1340 ft. from runway, 200 ft. right of centerline, 29:1 slope to clear

Airport Ownership and Management from official FAA records

Ownership: Publicly-owned
Owner: TISHOMINGO DIST 1 2 & 3
PO BOX 1008
IUKA, MS 38852
Phone 662-423-7032
Manager: RICK OWENS
1008 BATTLEGROUND DR
IUKA, MS 38852
Phone 662-424-2356

Airport Operational Statistics

Aircraft based on the field: 13
Single engine airplanes: 12
Helicopters: 1
    
Aircraft operations: avg 31/day *
52% local general aviation
44% transient general aviation
3% military
* for 12-month period ending 02 December 2020

Additional Remarks

A30A-01 +8 FT FENCE 200 FT FM THR 100 FT L.
FOR CD CTC MEMPHIS ARTCC AT 901-368-8453/8449.

Instrument Procedures

NOTE: All procedures below are presented as PDF files. If you need a reader for these files, you should download the free Adobe Reader.

NOT FOR NAVIGATION. Please procure official charts for flight.
FAA instrument procedures published for use from 8 September 2022 at 0901Z to 6 October 2022 at 0900Z.

 
IAPs - Instrument Approach Procedures
RNAV (GPS) RWY 01 **NEW**   download (158KB)
RNAV (GPS) RWY 19 **NEW**   download (150KB)
NOTE: Special Take-Off Minimums/Departure Procedures apply **NEW**   download (303KB)

Other nearby airports with instrument procedures:

KCRX - Roscoe Turner Airport (23 nm W)
KSNH - Savannah-Hardin County Airport (24 nm N)
8M1 - Booneville/Baldwyn Airport (26 nm SW)
KMSL - Northwest Alabama Regional Airport (27 nm E)
M22 - Bill Pugh Field Airport (30 nm SE)
 
Loc | Ops | Rwys | IFR | FBO | Links
Com | Nav | Svcs | Stats | Notes
Area around 15M (Iuka Airport)
 
Road maps at: MapQuest Bing Google
 
Aerial photo
WARNING: Photo may not be current or correct
Aerial photo of 15M (Iuka Airport)
Photo by Jeff Williams
Photo taken 16-Sep-2007
looking north

Do you have a better or more recent aerial photo of Iuka Airport that you would like to share? If so, please send us your photo.

 
Sectional chart

 
Airport distance calculator
Flying to Iuka Airport? Find the distance to fly.

From to 15M

Sunrise and sunset
Times for 29-Sep-2022
 Local
(UTC-5)
 Zulu
(UTC)
Morning civil twilight06:2211:22
Sunrise06:4711:47
Sunset18:3923:39
Evening civil twilight19:0400:04

Current date and time
Zulu (UTC)  29-Sep-2022 21:38:30
Local (UTC-5)  29-Sep-2022 16:38:30
 
METAR
KCRX 
23nm W 
292115Z AUTO 03010KT 10SM CLR 24/04 A3015 RMK AO2
KSNH 
24nm N 
292110Z AUTO 02010G15KT 10SM CLR 24/05 A3015 RMK A01
KMSL 
28nm E 
292053Z AUTO 04012KT 10SM CLR 24/06 A3014 RMK AO2 SLP201 T02440056 56026
KSZY 
30nm NW 
292115Z AUTO 36013G19KT 10SM CLR 23/05 A3016 RMK A01
TAF
KMSL 
28nm E 
291736Z 2918/3018 04010G18KT P6SM SKC FM300000 03007KT P6SM SKC FM301500 03008G15KT P6SM SKC
NOTAMs
Click for the latest NOTAMs
NOTAMs are issued by the DoD/FAA and will open in a separate window not controlled by AirNav.

 

 
 

FBO, Fuel Providers, and Aircraft Ground Support

  
 Business Name 
 
 Contact 
 
 Services / Description 
 
Fuel Prices
 
Comments
  
Iuka Airport 662-424-2356
[web site]
[email]

Like us on facebook
Airport management, Aviation fuel, Aircraft parking (ramp or tiedown), Restrooms

More info about Iuka Airport
Titan
100LL
SS $4.65 
 Updated 29-Sep-2022
 
   1 read write
SS=Self service
Update Fuel Prices
 

Would you like to see your business listed on this page?

 If your business provides an interesting product or service to pilots, flight crews, aircraft, or users of the Iuka Airport, you should consider listing it here.  To start the listing process, click on the button below
 
Add a business
 

Other Pages about Iuka Airport

www.k15m.com
 
Update a link
 
Copyright © AirNav, LLC. All rights reserved. Privacy Policy  Contact